Weather at Brive-Souillac

Public forecast

Using degrees Celsius for public forecast. Weather courtesy of forecast.io.

Current aviation weather report (METAR) for Brive-Souillac

Report is more than 6 hours old.

2022/11/14 15:30 (retrieved 2 years ago)

LFSL 141530Z AUTO VRB03KT 9999 -RA BKN007/// BKN014/// OVC050/// ///TCU 13/12 Q1015 TEMPO 4000 -RA BKN015

Closest aviation forecast (TAF) to Brive-Souillac

Forecast is more than 12 hours old.

Closest forecast is Bergerac-Roumanière Airport, 43.1 nm (79.8 km) WSW.

2023/02/22 18:56 (retrieved 1 year ago)

TAF LFBE 221700Z 2218/2318 27005KT 9999 BKN030 TEMPO 2218/2221 3000 SHRA BKN008 BKN015TCU TEMPO 2221/2318 3000 RA BKN005 OVC015